Time;durP1;ratioP1;P1;durP2;ratioP2;P2;SDS_P1;SDS_P2;PMS_P1;PMS_P2;Temp;Humidity;BMP_temperature;BMP_pressure;BME280_temperature;BME280_humidity;BME280_pressure;Samples;Min_cycle;Max_cycle;Signal;HPM_P1;HPM_P2
2024/02/15 00:00:35;;;;;;;;;7.00;5.50;;;;;11.85;41.67;101169.69;146629;593;45016;-72
2024/02/15 00:03:38;;;;;;;;;7.50;6.25;;;;;11.88;42.47;101174.16;146624;583;47010;-74
2024/02/15 00:06:53;;;;;;;;;9.00;8.00;;;;;11.93;42.41;101183.06;146621;590;46014;-78
2024/02/15 00:09:50;;;;;;;;;10.50;7.50;;;;;11.93;42.39;101190.88;146630;575;45010;-76
2024/02/15 00:12:43;;;;;;;;;9.25;7.00;;;;;11.90;42.57;101193.31;146626;584;46010;-74
2024/02/15 00:15:42;;;;;;;;;9.00;8.75;;;;;11.81;42.97;101188.50;146628;571;44915;-73
2024/02/15 00:18:39;;;;;;;;;8.50;7.25;;;;;11.67;43.04;101192.94;146625;597;47025;-71
2024/02/15 00:21:46;;;;;;;;;;;;;;;;;;;;;
2024/02/15 00:24:46;;;;;;;;;8.00;8.00;;;;;11.60;43.21;101196.03;146625;601;45016;-73
2024/02/15 00:27:42;;;;;;;;;8.25;8.00;;;;;11.56;42.87;101181.09;146629;609;46010;-74
2024/02/15 00:30:39;;;;;;;;;7.50;6.75;;;;;11.53;43.09;101192.22;146626;573;45915;-71
2024/02/15 00:33:36;;;;;;;;;7.50;7.00;;;;;11.52;43.10;101194.69;146629;618;46010;-74
2024/02/15 00:36:33;;;;;;;;;7.75;7.00;;;;;11.48;43.12;101190.16;146625;651;46012;-73
2024/02/15 00:39:37;;;;;;;;;9.75;9.75;;;;;11.49;43.59;101195.41;146629;575;45010;-73
2024/02/15 00:42:34;;;;;;;;;10.75;8.25;;;;;11.51;43.81;101196.41;146621;589;45917;-71
2024/02/15 00:45:31;;;;;;;;;9.25;8.00;;;;;11.53;43.62;101187.00;146607;650;47010;-69
2024/02/15 00:48:35;;;;;;;;;9.00;8.50;;;;;11.56;43.78;101197.56;146603;588;46017;-72
2024/02/15 00:51:33;;;;;;;;;10.00;9.25;;;;;11.58;43.67;101192.44;146606;569;46012;-74
2024/02/15 00:54:37;;;;;;;;;10.00;8.75;;;;;11.57;43.88;101201.06;146597;582;46016;-73
2024/02/15 00:57:33;;;;;;;;;8.00;8.00;;;;;11.63;43.87;101200.50;146605;575;46021;-76
2024/02/15 01:00:29;;;;;;;;;10.25;8.00;;;;;11.62;43.64;101204.81;146601;592;46916;-71
2024/02/15 01:03:38;;;;;;;;;7.75;7.25;;;;;11.65;43.73;101214.44;146606;667;47011;-74
2024/02/15 01:06:44;;;;;;;;;10.50;9.25;;;;;11.64;42.98;101215.25;146605;605;46016;-75
2024/02/15 01:09:41;;;;;;;;;10.00;8.00;;;;;11.40;43.46;101171.56;146607;746;46030;-73
2024/02/15 01:12:49;;;;;;;;;11.00;9.25;;;;;11.59;43.68;101208.91;146602;585;47016;-72
2024/02/15 01:15:44;;;;;;;;;10.00;9.25;;;;;11.54;43.21;101195.69;146606;595;46020;-76
2024/02/15 01:19:04;;;;;;;;;8.25;7.50;;;;;11.27;43.37;101176.88;146602;737;46017;-75
2024/02/15 01:22:02;;;;;;;;;7.00;6.75;;;;;11.49;43.55;101204.91;146605;612;46020;-73
2024/02/15 01:25:04;;;;;;;;;8.50;7.00;;;;;11.49;43.63;101205.81;146603;592;47012;-69
2024/02/15 01:28:03;;;;;;;;;10.00;9.25;;;;;11.48;43.51;101190.16;146607;652;46010;-71
2024/02/15 01:31:07;;;;;;;;;7.00;6.00;;;;;11.46;42.70;101190.06;146605;594;47012;-73
2024/02/15 01:34:13;;;;;;;;;7.00;7.00;;;;;11.43;42.95;101181.22;146604;665;47030;-71
2024/02/15 01:37:08;;;;;;;;;10.00;8.75;;;;;11.40;43.37;101178.44;146600;578;46016;-71
2024/02/15 01:40:03;;;;;;;;;6.75;6.00;;;;;11.39;43.55;101167.16;146605;569;47021;-70
2024/02/15 01:43:01;;;;;;;;;9.00;9.00;;;;;10.41;43.54;101000.91;146602;570;47012;-72
2024/02/15 01:45:56;;;;;;;;;9.00;9.00;;;;;11.42;43.74;101162.16;146603;637;47010;-71
2024/02/15 01:48:56;;;;;;;;;9.00;8.00;;;;;11.48;43.57;101171.97;146605;647;46012;-70
2024/02/15 01:51:53;;;;;;;;;9.75;8.00;;;;;11.45;42.31;101174.41;146603;599;47010;-69
2024/02/15 01:54:50;;;;;;;;;7.50;7.00;;;;;11.43;42.56;101170.81;146604;618;46013;-67
2024/02/15 01:57:56;;;;;;;;;8.50;8.00;;;;;11.44;42.68;101180.44;146605;621;46010;-69
2024/02/15 02:00:58;;;;;;;;;10.25;8.25;;;;;11.41;42.98;101183.75;146604;569;46012;-67
2024/02/15 02:03:52;;;;;;;;;10.50;10.25;;;;;11.41;42.67;101178.56;146608;588;46010;-68
2024/02/15 02:06:47;;;;;;;;;11.75;9.25;;;;;11.42;42.40;101192.41;146597;692;46021;-68
2024/02/15 02:09:46;;;;;;;;;8.00;7.00;;;;;11.41;42.58;101193.25;146602;683;47010;-68
2024/02/15 02:12:39;;;;;;;;;9.50;8.00;;;;;11.37;42.71;101186.06;146602;663;46016;-66
2024/02/15 02:15:37;;;;;;;;;7.25;7.25;;;;;11.38;42.97;101187.88;146605;771;46020;-67
2024/02/15 02:18:38;;;;;;;;;9.00;8.50;;;;;11.28;43.02;101178.69;146605;640;47012;-67
2024/02/15 02:21:43;;;;;;;;;13.50;10.50;;;;;11.28;43.11;101196.84;146606;692;46020;-65
2024/02/15 02:24:57;;;;;;;;;8.25;7.00;;;;;11.22;43.17;101193.91;146607;598;46012;-66
2024/02/15 02:28:06;;;;;;;;;;;;;;;;;;;;;
2024/02/15 02:31:05;;;;;;;;;11.50;10.75;;;;;11.15;43.35;101186.56;146604;585;46912;-68
2024/02/15 02:34:03;;;;;;;;;12.50;11.75;;;;;11.14;42.93;101196.06;146608;576;47010;-72
2024/02/15 02:37:07;;;;;;;;;13.75;11.25;;;;;11.08;43.40;101181.03;146605;571;46016;-70
2024/02/15 02:40:21;;;;;;;;;12.75;11.00;;;;;7.22;43.64;100511.56;146608;663;46011;-67
2024/02/15 02:43:23;;;;;;;;;13.50;9.75;;;;;11.01;43.78;101184.09;146602;670;47012;-68
2024/02/15 02:46:21;;;;;;;;;14.75;12.50;;;;;10.96;43.27;101190.72;146602;579;47010;-69
2024/02/15 02:49:18;;;;;;;;;8.50;8.50;;;;;10.95;43.56;101188.06;146603;564;46017;-70
2024/02/15 02:52:25;;;;;;;;;13.00;9.00;;;;;10.94;43.96;101200.13;146603;565;46020;-67
2024/02/15 02:55:30;;;;;;;;;8.25;8.25;;;;;10.91;44.03;101199.06;146604;578;46016;-67
2024/02/15 02:58:26;;;;;;;;;11.25;9.75;;;;;10.89;44.04;101209.34;146606;563;47010;-67
2024/02/15 03:01:26;;;;;;;;;10.75;9.00;;;;;10.90;43.82;101199.84;146604;576;46916;-73
2024/02/15 03:04:26;;;;;;;;;11.00;9.00;;;;;10.91;43.96;101206.84;146605;589;47912;-68
2024/02/15 03:07:24;;;;;;;;;11.50;9.00;;;;;10.92;43.76;101199.16;146599;565;47016;-70
2024/02/15 03:10:23;;;;;;;;;12.50;10.50;;;;;10.93;43.05;101195.72;146601;659;47010;-66
2024/02/15 03:13:31;;;;;;;;;8.75;8.75;;;;;10.94;42.57;101201.84;146602;610;46016;-67
2024/02/15 03:16:30;;;;;;;;;10.00;9.50;;;;;10.95;42.74;101198.44;146605;608;46021;-66
2024/02/15 03:19:37;;;;;;;;;11.50;11.00;;;;;10.91;43.00;101194.78;146601;646;46016;-67
2024/02/15 03:22:34;;;;;;;;;10.00;9.75;;;;;10.99;43.00;101180.50;146604;625;46020;-70
2024/02/15 03:25:38;;;;;;;;;13.00;12.00;;;;;11.01;43.34;101193.59;146604;570;47012;-70
2024/02/15 03:28:37;;;;;;;;;10.75;10.00;;;;;11.00;43.33;101210.88;146604;589;47010;-67
2024/02/15 03:31:33;;;;;;;;;10.50;10.50;;;;;10.96;43.55;101192.44;146604;573;46016;-67
2024/02/15 03:34:29;;;;;;;;;13.00;10.75;;;;;10.94;43.56;101201.84;146604;610;47010;-66
2024/02/15 03:37:33;;;;;;;;;14.25;11.25;;;;;10.97;43.70;101205.50;146605;635;46025;-68
2024/02/15 03:40:40;;;;;;;;;14.25;10.50;;;;;11.02;43.70;101214.44;146606;585;46021;-70
2024/02/15 03:43:37;;;;;;;;;9.00;9.00;;;;;11.03;43.82;101220.53;146597;573;48012;-71
2024/02/15 03:46:50;;;;;;;;;17.00;14.75;;;;;11.01;44.02;101220.44;146605;620;46021;-74
2024/02/15 03:49:47;;;;;;;;;12.50;10.25;;;;;11.00;44.12;101226.44;146599;591;47012;-70
2024/02/15 03:52:43;;;;;;;;;12.25;12.00;;;;;11.00;43.94;101230.75;146603;569;47010;-72
2024/02/15 03:55:45;;;;;;;;;10.75;10.25;;;;;11.00;43.67;101231.62;146603;595;46016;-73
2024/02/15 03:58:53;;;;;;;;;14.00;10.75;;;;;11.00;43.45;101229.03;146605;621;47010;-67
2024/02/15 04:01:55;;;;;;;;;12.75;11.00;;;;;10.99;43.37;101245.38;146598;602;46013;-67
2024/02/15 04:04:55;;;;;;;;;12.25;12.25;;;;;10.89;43.30;101244.78;146606;563;46020;-66
2024/02/15 04:07:53;;;;;;;;;13.25;11.50;;;;;10.87;43.89;101252.47;146600;585;47015;-69
2024/02/15 04:11:04;;;;;;;;;9.50;9.00;;;;;10.85;43.69;101212.59;146606;594;46010;-69
2024/02/15 04:14:06;;;;;;;;;11.00;10.75;;;;;10.63;43.92;101231.19;146602;600;47016;-69
2024/02/15 04:17:13;;;;;;;;;12.00;11.00;;;;;10.92;43.79;101281.28;146601;590;47012;-67
2024/02/15 04:20:18;;;;;;;;;13.50;10.50;;;;;10.94;43.66;101264.13;146601;611;46016;-67
2024/02/15 04:23:10;;;;;;;;;14.75;13.75;;;;;10.99;43.59;101284.31;146602;743;46021;-70
2024/02/15 04:26:19;;;;;;;;;14.00;13.25;;;;;11.01;43.72;101268.84;146598;571;46916;-70
2024/02/15 04:29:23;;;;;;;;;12.00;12.00;;;;;11.01;43.79;101280.13;146607;639;46010;-70
2024/02/15 04:32:33;;;;;;;;;15.75;15.00;;;;;6.44;43.75;100480.91;146600;564;46917;-70
2024/02/15 04:35:27;;;;;;;;;15.50;12.75;;;;;11.00;43.56;101238.53;146605;670;46020;-70
2024/02/15 04:38:41;;;;;;;;;13.00;11.00;;;;;10.99;43.71;101244.50;146606;606;46013;-71
2024/02/15 04:41:38;;;;;;;;;12.50;11.50;;;;;10.99;43.95;101250.56;146606;709;46020;-72
2024/02/15 04:44:36;;;;;;;;;16.50;14.75;;;;;10.99;44.25;101245.38;146624;590;46016;-74
2024/02/15 04:47:43;;;;;;;;;12.00;12.00;;;;;11.02;44.04;101239.50;146629;590;45021;-71
2024/02/15 04:51:03;;;;;;;;;10.50;10.25;;;;;11.04;44.19;101266.44;146628;611;46010;-72
2024/02/15 04:54:00;;;;;;;;;11.75;11.75;;;;;11.05;44.21;101279.47;146626;615;45917;-73
2024/02/15 04:57:10;;;;;;;;;10.25;10.25;;;;;11.07;44.01;101290.84;146626;586;46012;-71
2024/02/15 05:00:10;;;;;;;;;13.75;12.25;;;;;11.12;43.48;101306.72;146628;574;45021;-68
2024/02/15 05:03:04;;;;;;;;;14.75;11.25;;;;;10.92;43.76;101271.78;146621;618;45028;-71
2024/02/15 05:06:00;;;;;;;;;13.25;10.50;;;;;10.77;43.78;101248.44;146630;575;46010;-71
2024/02/15 05:09:03;;;;;;;;;12.75;10.75;;;;;11.21;43.71;101334.87;146625;564;45917;-69
2024/02/15 05:12:34;;;;;;;;;16.75;14.00;;;;;11.19;43.39;101334.81;146629;578;45911;-72
2024/02/15 05:15:39;;;;;;;;;18.75;14.00;;;;;11.18;43.93;101337.28;146627;565;45915;-73
2024/02/15 05:18:36;;;;;;;;;14.75;12.75;;;;;11.17;43.47;101345.91;146629;589;45031;-74
2024/02/15 05:21:52;;;;;;;;;14.00;12.50;;;;;9.39;43.54;101035.47;146625;609;45917;-70
2024/02/15 05:24:46;;;;;;;;;14.25;13.00;;;;;11.16;43.34;101344.12;146627;642;45010;-70
2024/02/15 05:27:43;;;;;;;;;16.50;11.75;;;;;11.14;43.13;101372.56;146628;589;45912;-72
2024/02/15 05:30:39;;;;;;;;;12.25;12.00;;;;;11.15;43.47;101363.97;146626;585;45011;-73
2024/02/15 05:33:44;;;;;;;;;13.50;11.00;;;;;11.16;43.07;101383.94;146625;565;46038;-73
2024/02/15 05:37:06;;;;;;;;;9.75;9.75;;;;;11.16;42.88;101396.03;146626;588;47018;-71
2024/02/15 05:40:07;;;;;;;;;14.00;11.00;;;;;11.15;42.48;101399.41;146626;670;46012;-72
2024/02/15 05:43:08;;;;;;;;;11.00;10.25;;;;;11.16;42.70;101399.50;146621;582;46020;-73
2024/02/15 05:46:14;;;;;;;;;13.00;13.00;;;;;9.83;43.12;101200.41;146602;584;47016;-73
2024/02/15 05:49:17;;;;;;;;;10.75;10.50;;;;;11.23;43.77;101403.37;146599;570;47010;-72
2024/02/15 05:52:24;;;;;;;;;12.50;11.50;;;;;11.25;44.72;101406.97;146603;621;46017;-74
2024/02/15 05:55:18;;;;;;;;;11.25;10.00;;;;;11.23;44.41;101412.03;146607;588;47043;-75
2024/02/15 05:58:13;;;;;;;;;10.75;10.75;;;;;11.23;44.85;101409.44;146605;778;46012;-72
2024/02/15 06:01:10;;;;;;;;;15.00;10.50;;;;;10.36;44.58;101256.34;146608;601;46012;-73
2024/02/15 06:04:08;;;;;;;;;16.50;15.50;;;;;11.27;43.98;101431.28;146605;625;46016;-73
2024/02/15 06:07:03;;;;;;;;;23.00;18.25;;;;;11.27;44.10;101428.69;146605;571;46020;-72
2024/02/15 06:10:04;;;;;;;;;12.75;12.75;;;;;11.27;43.95;101431.28;146602;593;46012;-72
2024/02/15 06:13:01;;;;;;;;;18.00;14.50;;;;;11.28;43.95;101434.00;146602;581;47020;-72
2024/02/15 06:16:11;;;;;;;;;13.75;13.00;;;;;11.24;44.28;101437.19;146603;594;46012;-72
2024/02/15 06:19:09;;;;;;;;;13.75;13.50;;;;;11.23;44.46;101434.53;146606;563;46010;-71
2024/02/15 06:22:07;;;;;;;;;19.00;16.00;;;;;11.23;44.65;101430.22;146603;617;46037;-72
2024/02/15 06:25:05;;;;;;;;;13.00;12.25;;;;;11.24;44.63;101434.59;146603;662;47010;-73
2024/02/15 06:28:19;;;;;;;;;17.75;13.25;;;;;11.14;44.60;101416.69;146598;627;46016;-73
2024/02/15 06:41:40;;;;;;;;;25.25;21.00;;;;;11.38;44.70;101435.44;146600;606;47013;-70
2024/02/15 06:44:41;;;;;;;;;28.75;27.50;;;;;11.15;45.33;101400.31;146628;593;45021;-71
2024/02/15 06:47:40;;;;;;;;;20.00;16.25;;;;;11.39;45.33;101442.41;146627;566;45914;-70
2024/02/15 06:50:37;;;;;;;;;18.00;18.00;;;;;11.40;45.47;101438.09;146627;676;46012;-70
2024/02/15 06:53:35;;;;;;;;;21.00;20.00;;;;;11.38;44.82;101437.16;146626;581;45017;-71
2024/02/15 06:56:42;;;;;;;;;16.25;14.75;;;;;11.26;45.12;101422.63;146626;592;46010;-71
2024/02/15 06:59:42;;;;;;;;;20.00;17.50;;;;;11.42;44.95;101445.19;146623;609;45914;-70
2024/02/15 07:02:44;;;;;;;;;18.00;15.25;;;;;11.47;45.08;101450.66;146627;620;47010;-71
2024/02/15 07:05:51;;;;;;;;;19.00;16.75;;;;;11.46;45.14;101434.16;146626;599;46010;-71
2024/02/15 07:08:47;;;;;;;;;17.25;15.00;;;;;11.46;45.35;101435.88;146621;565;46048;-72
2024/02/15 07:11:51;;;;;;;;;10.75;3.75;;;;;11.46;45.45;101422.88;146628;623;45914;-71
2024/02/15 07:14:52;;;;;;;;;21.50;18.00;;;;;11.50;45.39;101448.25;146626;607;45020;-71
2024/02/15 07:18:01;;;;;;;;;14.00;12.50;;;;;11.51;45.54;101418.88;146627;563;45016;-70
2024/02/15 07:21:00;;;;;;;;;15.75;14.25;;;;;11.54;45.30;101426.84;146626;585;45020;-71
2024/02/15 07:24:01;;;;;;;;;15.50;12.75;;;;;11.45;45.42;101403.81;146624;584;45915;-67
2024/02/15 07:27:25;;;;;;;;;15.00;11.50;;;;;7.44;45.04;100701.19;146626;584;45029;-71
2024/02/15 07:30:23;;;;;;;;;14.50;13.75;;;;;11.59;45.26;101429.69;146619;631;46012;-74
2024/02/15 07:33:20;;;;;;;;;18.75;15.75;;;;;11.62;44.99;101437.66;146628;649;46012;-71
2024/02/15 07:36:24;;;;;;;;;12.75;12.00;;;;;11.68;44.95;101431.16;146626;681;45012;-70
2024/02/15 07:39:29;;;;;;;;;15.00;13.75;;;;;11.77;44.89;101431.69;146631;569;45020;-71
2024/02/15 07:42:25;;;;;;;;;18.00;16.00;;;;;11.85;44.85;101432.12;146622;619;46014;-69
2024/02/15 07:45:25;;;;;;;;;17.00;15.00;;;;;11.88;44.35;101427.13;146604;696;46021;-70
2024/02/15 07:48:28;;;;;;;;;18.25;16.25;;;;;11.95;45.29;101421.44;146603;590;46016;-69
2024/02/15 07:51:29;;;;;;;;;18.75;13.75;;;;;12.00;45.10;101419.13;146605;625;46021;-70
2024/02/15 07:54:52;;;;;;;;;18.50;15.00;;;;;12.03;44.59;101419.31;146602;650;46026;-71
2024/02/15 07:57:51;;;;;;;;;17.50;14.50;;;;;12.06;44.83;101421.19;146605;564;46011;-71
2024/02/15 08:00:50;;;;;;;;;17.75;14.25;;;;;12.08;44.50;101422.16;146600;628;47016;-71
2024/02/15 08:03:45;;;;;;;;;9.00;5.25;;;;;12.11;44.67;101430.13;146607;715;47010;-70
2024/02/15 08:06:40;;;;;;;;;16.75;14.25;;;;;12.13;44.56;101429.41;146598;611;46017;-71
2024/02/15 08:09:35;;;;;;;;;18.25;13.50;;;;;12.14;44.10;101430.28;146605;591;46024;-71
2024/02/15 08:12:35;;;;;;;;;19.75;17.00;;;;;12.14;44.08;101438.97;146600;583;47012;-73
2024/02/15 08:15:44;;;;;;;;;16.00;14.75;;;;;11.74;43.71;101365.63;146604;644;46020;-72
2024/02/15 08:18:40;;;;;;;;;21.25;16.25;;;;;12.17;43.59;101433.94;146600;682;46016;-72
2024/02/15 08:21:42;;;;;;;;;16.75;14.25;;;;;12.18;43.19;101435.75;146603;575;46021;-73
2024/02/15 08:24:45;;;;;;;;;17.00;13.75;;;;;12.22;43.35;101437.72;146595;580;48916;-72
2024/02/15 08:27:52;;;;;;;;;18.25;16.75;;;;;12.27;42.97;101448.34;146603;619;46011;-71
2024/02/15 08:30:49;;;;;;;;;17.00;15.00;;;;;12.31;42.92;101449.44;146601;590;46032;-73
2024/02/15 08:33:45;;;;;;;;;13.50;12.25;;;;;12.38;42.88;101454.19;146609;607;46010;-70
2024/02/15 08:36:41;;;;;;;;;17.50;16.00;;;;;9.10;42.46;100868.16;146602;601;46016;-69
2024/02/15 08:39:44;;;;;;;;;17.50;17.00;;;;;12.42;42.86;101435.31;146605;651;46020;-74
2024/02/15 08:42:50;;;;;;;;;14.50;11.25;;;;;12.73;42.89;101460.41;146604;606;46016;-70
2024/02/15 08:45:46;;;;;;;;;16.00;13.25;;;;;13.08;42.55;101451.88;146611;601;46010;-72
2024/02/15 08:48:44;;;;;;;;;15.75;13.50;;;;;13.38;41.16;101439.59;146603;624;46012;-67
2024/02/15 08:51:36;;;;;;;;;15.25;14.75;;;;;13.52;40.75;101437.66;146606;697;46021;-73
2024/02/15 08:54:29;;;;;;;;;13.00;13.00;;;;;13.84;40.79;101455.84;146598;565;47916;-74
2024/02/15 08:57:27;;;;;;;;;14.50;12.00;;;;;14.10;40.00;101446.66;146606;612;46020;-72
2024/02/15 09:00:26;;;;;;;;;14.00;12.75;;;;;14.27;39.52;101451.81;146599;694;47016;-75
2024/02/15 09:03:19;;;;;;;;;15.50;14.50;;;;;14.37;38.94;101437.50;146607;605;46010;-71
2024/02/15 09:06:13;;;;;;;;;15.25;14.25;;;;;14.48;38.83;101441.47;146605;620;46034;-70
2024/02/15 09:09:05;;;;;;;;;14.50;14.50;;;;;14.46;38.89;101450.97;146607;670;47012;-75
2024/02/15 09:11:58;;;;;;;;;17.25;16.25;;;;;14.35;39.67;101457.37;146604;610;46916;-73
2024/02/15 09:14:55;;;;;;;;;13.00;12.25;;;;;14.33;40.79;101447.78;146607;569;46020;-73
2024/02/15 09:17:43;;;;;;;;;15.00;14.50;;;;;14.44;39.41;101440.44;146709;578;46022;-73
2024/02/15 09:20:46;;;;;;;;;13.75;12.00;;;;;14.55;39.39;101435.78;146619;608;46943;-72
2024/02/15 09:23:44;;;;;;;;;15.00;13.50;;;;;14.74;39.68;101434.91;146623;571;46020;-75
2024/02/15 09:26:52;;;;;;;;;14.25;13.50;;;;;14.97;39.08;101436.81;146619;704;46016;-73
2024/02/15 09:29:47;;;;;;;;;16.00;14.00;;;;;15.22;38.61;101430.06;146625;569;46010;-74
2024/02/15 09:32:53;;;;;;;;;18.75;11.50;;;;;15.38;38.86;101426.41;146618;638;46016;-70
2024/02/15 09:35:48;;;;;;;;;17.50;13.00;;;;;15.51;38.58;101431.31;146622;577;46011;-73
2024/02/15 09:38:51;;;;;;;;;11.75;10.25;;;;;15.61;38.34;101420.44;146618;630;46916;-72
2024/02/15 09:41:55;;;;;;;;;13.00;11.50;;;;;15.76;37.96;101414.97;146622;604;46010;-71
2024/02/15 09:44:54;;;;;;;;;14.25;12.75;;;;;15.92;37.91;101421.75;146618;566;46016;-74
2024/02/15 09:47:52;;;;;;;;;14.50;12.50;;;;;16.11;37.99;101408.56;146623;583;46010;-71
2024/02/15 09:51:15;;;;;;;;;12.50;10.75;;;;;14.36;38.57;101057.41;146618;583;46016;-73
2024/02/15 09:54:13;;;;;;;;;14.00;12.75;;;;;16.48;36.32;101396.91;146623;573;46010;-71
2024/02/15 09:57:19;;;;;;;;;;;;;;;;;;;;;
2024/02/15 10:00:18;;;;;;;;;30.00;26.75;;;;;16.40;36.94;101404.44;146626;565;46022;-73
2024/02/15 10:03:31;;;;;;;;;21.00;16.50;;;;;16.50;35.48;101396.94;146616;580;46016;-71
2024/02/15 10:06:40;;;;;;;;;18.00;15.75;;;;;16.55;35.11;101395.41;146622;570;46021;-72
2024/02/15 10:09:51;;;;;;;;;14.50;10.00;;;;;16.57;37.22;101392.03;146620;577;46016;-72
2024/02/15 10:13:09;;;;;;;;;13.50;10.00;;;;;16.65;35.54;101392.28;146622;599;46021;-73
2024/02/15 10:16:18;;;;;;;;;14.50;12.00;;;;;16.62;36.66;101371.22;146618;595;46016;-72
2024/02/15 10:19:17;;;;;;;;;12.00;11.25;;;;;16.83;35.12;101387.75;146621;618;46021;-71
2024/02/15 10:22:16;;;;;;;;;14.75;12.50;;;;;16.93;36.02;101378.50;146618;625;46012;-73
2024/02/15 10:25:22;;;;;;;;;11.00;9.75;;;;;17.08;37.57;101370.31;146624;578;46020;-71
2024/02/15 10:28:35;;;;;;;;;;;;;;;;;;;;;
2024/02/15 10:31:31;;;;;;;;;9.50;8.50;;;;;17.17;34.37;101368.00;146619;573;47020;-73
2024/02/15 10:34:27;;;;;;;;;10.75;9.25;;;;;17.21;33.82;101354.16;146612;599;46912;-71
2024/02/15 10:37:24;;;;;;;;;11.00;10.75;;;;;17.18;34.40;101363.66;146624;602;46010;-72
2024/02/15 10:40:29;;;;;;;;;9.50;8.75;;;;;17.23;34.30;101364.72;146617;565;46912;-75
2024/02/15 10:43:25;;;;;;;;;10.50;10.50;;;;;17.34;35.19;101365.06;146619;630;47020;-75
2024/02/15 10:46:28;;;;;;;;;7.50;7.00;;;;;16.48;33.45;101200.59;146621;565;46014;-76
2024/02/15 10:49:27;;;;;;;;;8.25;8.25;;;;;17.47;33.06;101355.03;146626;564;46020;-74
2024/02/15 10:52:42;;;;;;;;;8.25;8.00;;;;;17.50;34.73;101347.25;146618;592;47012;-73
2024/02/15 10:56:37;;;;;;;;;10.50;9.00;;;;;17.61;35.42;101357.22;146623;625;46011;-72
2024/02/15 11:00:21;;;;;;;;;11.00;10.00;;;;;16.68;36.51;101174.19;146618;581;46910;-75
2024/02/15 11:03:47;;;;;;;;;10.25;8.00;;;;;17.67;33.45;101318.97;146622;595;45999;-73
2024/02/15 11:06:53;;;;;;;;;10.50;10.25;;;;;17.83;33.92;101350.97;146616;595;46016;-71
2024/02/15 11:09:56;;;;;;;;;13.00;11.00;;;;;17.74;33.92;101335.78;146618;583;46020;-73
2024/02/15 11:12:58;;;;;;;;;11.75;11.75;;;;;17.87;34.82;101347.59;146616;592;46014;-74
2024/02/15 11:15:59;;;;;;;;;14.50;11.50;;;;;17.90;34.17;101345.06;146621;571;46010;-73
2024/02/15 11:18:58;;;;;;;;;13.25;10.00;;;;;18.03;33.82;101348.97;146620;717;45017;-73
2024/02/15 11:22:03;;;;;;;;;8.50;7.00;;;;;18.21;35.08;101347.78;146619;677;47020;-72
2024/02/15 11:25:08;;;;;;;;;9.75;8.00;;;;;18.37;33.87;101336.00;146616;715;46017;-73
2024/02/15 11:28:50;;;;;;;;;11.25;9.00;;;;;16.73;34.10;101019.00;146627;601;46010;-73
2024/02/15 11:32:05;;;;;;;;;8.50;8.25;;;;;18.63;35.23;101326.25;146618;674;47012;-73
2024/02/15 11:35:30;;;;;;;;;13.25;11.00;;;;;18.73;35.02;101329.19;146621;586;46021;-73
2024/02/15 11:38:43;;;;;;;;;10.75;10.00;;;;;18.78;33.68;101327.53;146618;603;46016;-73
2024/02/15 11:41:47;;;;;;;;;11.25;10.00;;;;;18.78;32.69;101323.16;146618;660;46021;-72
2024/02/15 11:44:45;;;;;;;;;9.75;8.50;;;;;18.80;32.22;101315.34;146616;611;46016;-73
2024/02/15 11:48:03;;;;;;;;;17.75;14.50;;;;;18.85;33.11;101316.38;146620;571;46020;-72
2024/02/15 11:50:59;;;;;;;;;14.25;13.00;;;;;18.82;32.98;101308.41;146619;692;46015;-75
2024/02/15 11:54:31;;;;;;;;;15.75;13.25;;;;;18.89;35.32;101300.72;146619;592;47012;-72
2024/02/15 11:57:53;;;;;;;;;7.00;7.00;;;;;17.01;34.28;100959.63;146620;592;46014;-74
2024/02/15 12:20:38;;;;;;;;;6.25;6.25;;;;;19.07;33.03;101292.44;146621;566;46020;-71
2024/02/15 12:23:41;;;;;;;;;7.00;6.00;;;;;19.17;33.86;101284.78;146619;632;46914;-74
2024/02/15 12:26:46;;;;;;;;;8.50;6.75;;;;;19.31;31.90;101278.09;146622;712;46012;-73
2024/02/15 12:29:48;;;;;;;;;5.50;5.50;;;;;19.29;32.61;101278.06;146619;625;46016;-73
2024/02/15 12:32:56;;;;;;;;;4.75;4.00;;;;;18.99;31.26;101278.19;146622;708;46021;-72
2024/02/15 12:36:17;;;;;;;;;6.00;6.00;;;;;18.79;34.08;101275.06;146617;614;46012;-74
2024/02/15 12:39:12;;;;;;;;;7.75;6.25;;;;;18.67;31.41;101283.47;146620;571;46021;-69
2024/02/15 12:42:28;;;;;;;;;6.50;5.00;;;;;16.22;34.31;100850.78;146617;564;46016;-72
2024/02/15 12:45:31;;;;;;;;;6.25;5.25;;;;;18.60;33.38;101278.91;146621;623;48010;-73
2024/02/15 12:48:32;;;;;;;;;7.00;6.25;;;;;18.53;32.28;101278.66;146619;565;46012;-73
2024/02/15 12:51:31;;;;;;;;;6.25;6.25;;;;;18.59;32.03;101278.84;146623;601;47010;-75
2024/02/15 12:54:27;;;;;;;;;9.75;9.75;;;;;18.57;33.12;101280.56;146618;691;46012;-75
2024/02/15 12:57:25;;;;;;;;;13.25;13.25;;;;;18.53;31.91;101294.41;146620;569;46020;-71
2024/02/15 13:00:40;;;;;;;;;8.25;7.25;;;;;18.55;32.76;101293.63;146610;582;47914;-74
2024/02/15 13:03:37;;;;;;;;;9.50;7.75;;;;;18.49;32.32;101263.69;146622;566;46010;-75
2024/02/15 13:06:29;;;;;;;;;8.00;7.25;;;;;18.67;31.82;101275.56;146618;563;47016;-73
2024/02/15 13:09:24;;;;;;;;;10.25;9.75;;;;;18.62;30.98;101276.28;146623;571;46020;-73
2024/02/15 13:12:19;;;;;;;;;7.00;5.50;;;;;18.37;30.37;101285.22;146621;666;46012;-68
2024/02/15 13:15:21;;;;;;;;;6.00;6.00;;;;;18.14;31.33;101292.44;146626;599;45020;-72
2024/02/15 13:18:22;;;;;;;;;5.25;5.00;;;;;17.98;31.71;101294.63;146621;611;46012;-71
2024/02/15 13:21:23;;;;;;;;;5.75;4.25;;;;;17.96;31.96;101291.03;146624;664;45020;-75
2024/02/15 13:24:25;;;;;;;;;8.00;6.25;;;;;18.04;31.83;101291.28;146618;606;47016;-73
2024/02/15 13:27:38;;;;;;;;;;;;;;;;;;;;;
2024/02/15 13:30:56;;;;;;;;;6.00;6.00;;;;;17.88;33.69;101289.94;146616;627;47016;-74
2024/02/15 13:33:49;;;;;;;;;5.25;5.00;;;;;17.96;32.32;101296.28;146624;651;46020;-75
2024/02/15 13:36:41;;;;;;;;;9.75;8.25;;;;;18.05;31.89;101287.81;146619;587;46012;-76
2024/02/15 13:39:44;;;;;;;;;7.50;7.50;;;;;18.08;31.47;101294.91;146621;609;46020;-73
2024/02/15 13:42:52;;;;;;;;;7.25;7.25;;;;;17.97;31.86;101297.19;146617;609;47016;-75
2024/02/15 13:45:51;;;;;;;;;4.50;4.50;;;;;17.92;31.64;101294.44;146620;580;48010;-73
2024/02/15 13:49:03;;;;;;;;;7.50;5.75;;;;;17.95;32.89;101299.78;146616;569;47916;-70
2024/02/15 13:51:58;;;;;;;;;7.75;7.75;;;;;18.02;31.33;101300.84;146622;569;47011;-73
2024/02/15 13:54:57;;;;;;;;;6.00;6.00;;;;;18.10;32.79;101307.22;146615;574;48012;-70
2024/02/15 13:58:00;;;;;;;;;4.75;4.00;;;;;18.16;32.58;101293.38;146625;630;46010;-73
2024/02/15 14:01:07;;;;;;;;;;;;;;;;;;;;;
2024/02/15 14:04:09;;;;;;;;;10.00;8.00;;;;;18.04;32.50;101306.12;146621;705;46020;-73
2024/02/15 14:07:12;;;;;;;;;7.25;5.50;;;;;17.98;31.84;101305.13;146617;663;46017;-71
2024/02/15 14:10:13;;;;;;;;;6.25;4.00;;;;;17.88;32.00;101297.81;146625;619;46012;-72
2024/02/15 14:13:08;;;;;;;;;4.75;4.50;;;;;17.75;31.82;101306.97;146621;675;46012;-71
2024/02/15 14:16:02;;;;;;;;;8.00;7.25;;;;;17.48;32.65;101283.41;146621;566;46021;-73
2024/02/15 14:18:55;;;;;;;;;5.50;4.25;;;;;17.42;32.06;101292.81;146619;705;46012;-70
2024/02/15 14:21:54;;;;;;;;;6.50;6.50;;;;;17.06;32.99;101277.66;146623;570;46027;-74
2024/02/15 14:25:13;;;;;;;;;10.00;8.50;;;;;13.54;34.49;100703.97;146618;569;46016;-70
2024/02/15 14:28:14;;;;;;;;;9.25;8.50;;;;;16.81;32.94;101294.25;146624;585;46012;-71
2024/02/15 14:34:44;;;;;;;;;11.25;9.00;;;;;12.77;35.12;100621.88;146619;598;47025;-73
2024/02/15 14:38:11;;;;;;;;;8.00;8.00;;;;;16.62;34.16;101300.53;146619;586;46017;-73
2024/02/15 14:41:16;;;;;;;;;4.50;4.25;;;;;16.62;33.56;101296.19;146622;569;46020;-72